This is the latest recevied weather packets stored in our database for station/object PY2VE-13. If no packets are shown the sender has not sent any weather packets the latest 10 day(s).
| Time | Temp. | Humidity | Pressure | Rain* | Wind** | Luminosity | Snow |
|---|---|---|---|---|---|---|---|
| 1777987133 | 28.89° C | 45% | 1025.8 hPa | - | - | - | - |
| 1777986233 | 28.33° C | 45% | 1026 hPa | - | - | - | - |
| 1777985333 | 28.33° C | 45% | 1026.1 hPa | - | - | - | - |
| 1777984433 | 27.22° C | 48% | 1026.1 hPa | - | - | - | - |
| 1777983543 | 27.22° C | 49% | 1026.1 hPa | - | - | - | - |
| 1777982634 | 26.11° C | 51% | 1026.2 hPa | - | - | - | - |
| 1777981733 | 25.56° C | 51% | 1026.3 hPa | - | - | - | - |
| 1777980833 | 26.11° C | 51% | 1026.1 hPa | - | - | - | - |
| 1777979933 | 25° C | 52% | 1026.1 hPa | - | - | - | - |
| 1777979033 | 24.44° C | 54% | 1026 hPa | - | - | - | - |
| 1777978133 | 23.89° C | 57% | 1026.2 hPa | - | - | - | - |
| 1777977233 | 23.33° C | 57% | 1026 hPa | - | - | - | - |
| 1777976333 | 23.89° C | 56% | 1025.7 hPa | - | - | - | - |
| 1777975433 | 23.33° C | 58% | 1025.8 hPa | - | - | - | - |
| 1777974533 | 23.33° C | 57% | 1025.6 hPa | - | - | - | - |
| 1777973633 | 23.89° C | 57% | 1025.3 hPa | - | - | - | - |
| 1777972733 | 23.33° C | 58% | 1025.3 hPa | - | - | - | - |
| 1777971833 | 23.89° C | 55% | 1025 hPa | - | - | - | - |
| 1777970933 | 24.44° C | 54% | 1024.6 hPa | - | - | - | - |
| 1777970033 | 23.89° C | 55% | 1024.4 hPa | - | - | - | - |
| 1777969133 | 23.89° C | 55% | 1024.4 hPa | - | - | - | - |
| 1777968233 | 23.89° C | 55% | 1024.1 hPa | - | - | - | - |
| 1777967333 | 23.89° C | 55% | 1024.1 hPa | - | - | - | - |
| 1777966433 | 23.89° C | 55% | 1024.1 hPa | - | - | - | - |
| 1777965533 | 24.44° C | 53% | 1024.2 hPa | - | - | - | - |
* Rain since midnight (hover to see other rain measurements)
** Current wind speed in m/s (hover to see current wind gust speed)